createdAt,value
2017-11-08T00:00:11.316Z,73.60
2017-11-08T00:01:11.279Z,72.80
2017-11-08T00:02:11.239Z,79.70
2017-11-08T00:03:11.201Z,73.00
2017-11-08T00:04:11.164Z,85.00
2017-11-08T00:05:11.190Z,83.30
2017-11-08T00:06:11.088Z,82.60
2017-11-08T00:07:11.048Z,74.90
2017-11-08T00:08:11.009Z,79.00
2017-11-08T00:09:10.973Z,83.10
2017-11-08T00:10:10.934Z,76.10
2017-11-08T00:11:10.898Z,78.50
2017-11-08T00:12:10.920Z,76.40
2017-11-08T00:13:10.824Z,75.50
2017-11-08T00:14:10.780Z,80.10
2017-11-08T00:15:10.741Z,76.20
2017-11-08T00:16:10.703Z,82.70
2017-11-08T00:17:10.664Z,82.10
2017-11-08T00:18:10.627Z,77.00
2017-11-08T00:19:10.588Z,80.30
2017-11-08T00:20:10.550Z,87.50
2017-11-08T00:21:10.511Z,87.20
2017-11-08T00:22:10.473Z,77.00
2017-11-08T00:23:10.434Z,75.80
2017-11-08T00:24:10.399Z,84.60
2017-11-08T00:25:10.363Z,72.30
2017-11-08T00:26:10.321Z,76.30
2017-11-08T00:27:10.282Z,83.70
2017-11-08T00:28:10.243Z,85.10
2017-11-08T00:29:10.205Z,71.80
2017-11-08T00:30:10.168Z,86.00
2017-11-08T00:31:10.130Z,79.20
2017-11-08T00:32:10.090Z,82.10
2017-11-08T00:33:10.052Z,83.90
2017-11-08T00:34:10.014Z,68.90
2017-11-08T00:35:09.974Z,83.10
2017-11-08T00:36:09.937Z,74.20
2017-11-08T00:37:09.899Z,73.20
2017-11-08T00:38:09.869Z,79.90
2017-11-08T00:39:09.821Z,72.20
2017-11-08T00:40:09.785Z,75.20
2017-11-08T00:41:09.746Z,75.10
2017-11-08T00:42:09.705Z,78.00
2017-11-08T00:43:09.670Z,72.30
2017-11-08T00:44:09.633Z,76.80
2017-11-08T00:45:09.593Z,81.90
2017-11-08T00:46:09.556Z,77.50
2017-11-08T00:47:09.516Z,73.20
2017-11-08T00:48:09.480Z,80.00
2017-11-08T00:49:09.441Z,82.70
2017-11-08T00:50:09.408Z,79.60
2017-11-08T00:51:09.362Z,84.20
2017-11-08T00:52:09.326Z,86.90
2017-11-08T00:53:09.289Z,86.40
2017-11-08T00:54:09.247Z,82.80
2017-11-08T00:55:09.209Z,86.60
2017-11-08T00:56:09.171Z,79.70
2017-11-08T00:57:09.133Z,87.90
2017-11-08T00:58:09.113Z,80.70
2017-11-08T00:59:09.056Z,83.70
2017-11-08T01:00:09.019Z,91.80
2017-11-08T01:01:08.979Z,83.20
2017-11-08T01:02:08.943Z,88.60
2017-11-08T01:03:08.904Z,87.50
2017-11-08T01:04:08.869Z,96.40
2017-11-08T01:05:08.829Z,82.80
2017-11-08T01:06:08.790Z,78.20
2017-11-08T01:07:08.752Z,95.90
2017-11-08T01:08:08.713Z,89.50
2017-11-08T01:09:08.675Z,85.90
2017-11-08T01:10:08.635Z,97.50
2017-11-08T01:11:08.598Z,89.00
2017-11-08T01:12:08.578Z,93.70
2017-11-08T01:13:08.523Z,90.40
2017-11-08T01:14:08.485Z,88.00
2017-11-08T01:15:08.451Z,90.30
2017-11-08T01:16:08.408Z,95.50
2017-11-08T01:17:08.369Z,91.60
2017-11-08T01:18:08.331Z,92.50
2017-11-08T01:19:08.293Z,89.80
2017-11-08T01:20:08.255Z,88.80
2017-11-08T01:21:08.222Z,86.70
2017-11-08T01:22:08.178Z,97.30
2017-11-08T01:23:08.139Z,94.20
2017-11-08T01:24:08.101Z,89.70
2017-11-08T01:25:08.061Z,91.20
2017-11-08T01:26:08.025Z,94.10
2017-11-08T01:27:07.989Z,89.50
2017-11-08T01:28:07.946Z,92.70
2017-11-08T01:29:07.909Z,95.30
2017-11-08T01:30:07.872Z,97.10
2017-11-08T01:31:07.836Z,99.10
2017-11-08T01:32:07.795Z,91.40
2017-11-08T01:33:07.775Z,106.00
2017-11-08T01:34:07.717Z,106.90
2017-11-08T01:35:07.677Z,99.70
2017-11-08T01:36:07.641Z,90.30
2017-11-08T01:37:07.616Z,100.10
2017-11-08T01:38:07.571Z,94.80
2017-11-08T01:39:07.525Z,96.50
2017-11-08T01:40:07.486Z,98.90
2017-11-08T01:41:07.449Z,105.50
2017-11-08T01:42:07.409Z,93.00
2017-11-08T01:43:07.371Z,98.30
2017-11-08T01:44:07.331Z,89.50
2017-11-08T01:45:07.294Z,100.50
2017-11-08T01:46:07.255Z,92.10
2017-11-08T01:47:07.215Z,95.40
2017-11-08T01:48:07.178Z,91.60
2017-11-08T01:49:07.139Z,90.60
2017-11-08T01:50:07.098Z,91.20
2017-11-08T01:51:07.060Z,98.80
2017-11-08T01:52:07.024Z,85.90
2017-11-08T01:53:06.985Z,79.70
2017-11-08T01:54:06.944Z,84.50
2017-11-08T01:55:06.905Z,89.40
2017-11-08T01:56:06.868Z,93.80
2017-11-08T01:57:06.969Z,86.90
2017-11-08T01:58:06.792Z,89.40
2017-11-08T01:59:06.753Z,88.90
2017-11-08T02:00:06.714Z,81.20
2017-11-08T02:01:06.975Z,81.80
2017-11-08T02:02:06.638Z,81.70
2017-11-08T02:03:06.598Z,101.20
2017-11-08T02:04:06.560Z,94.80
2017-11-08T02:05:06.523Z,91.90
2017-11-08T02:06:06.483Z,86.10
2017-11-08T02:07:06.459Z,78.50
2017-11-08T02:08:06.410Z,83.10
2017-11-08T02:09:06.369Z,79.60
2017-11-08T02:10:06.331Z,87.10
2017-11-08T02:11:06.292Z,91.70
2017-11-08T02:12:06.262Z,85.30
2017-11-08T02:13:06.217Z,102.60
2017-11-08T02:14:06.174Z,88.30
2017-11-08T02:15:06.547Z,92.60
2017-11-08T02:16:06.107Z,88.30
2017-11-08T02:17:06.062Z,86.30
2017-11-08T02:18:06.023Z,84.20
2017-11-08T02:19:05.985Z,93.10
2017-11-08T02:20:05.945Z,82.50
2017-11-08T02:21:05.908Z,90.50
2017-11-08T02:22:05.871Z,90.80
2017-11-08T02:23:05.830Z,88.50
2017-11-08T02:24:05.797Z,84.30
2017-11-08T02:25:05.767Z,87.20
2017-11-08T02:26:05.719Z,85.80
2017-11-08T02:27:05.676Z,80.50
2017-11-08T02:28:05.642Z,96.10
2017-11-08T02:29:05.601Z,92.30
2017-11-08T02:30:05.566Z,90.30
2017-11-08T02:31:05.522Z,89.60
2017-11-08T02:32:05.486Z,84.20
2017-11-08T02:33:05.449Z,85.40
2017-11-08T02:34:05.415Z,90.90
2017-11-08T02:35:05.370Z,95.60
2017-11-08T02:36:05.334Z,93.70
2017-11-08T02:37:05.293Z,90.40
2017-11-08T02:38:05.255Z,95.80
2017-11-08T02:39:05.217Z,85.90
2017-11-08T02:40:05.178Z,91.20
2017-11-08T02:41:05.140Z,99.10
2017-11-08T02:42:05.104Z,97.30
2017-11-08T02:43:05.063Z,93.30
2017-11-08T02:44:05.026Z,85.30
2017-11-08T02:45:04.987Z,89.80
2017-11-08T02:46:04.949Z,95.90
2017-11-08T02:47:04.911Z,87.00
2017-11-08T02:48:04.871Z,85.40
2017-11-08T02:49:04.833Z,85.80
2017-11-08T02:50:04.795Z,85.80
2017-11-08T02:51:04.756Z,76.90
2017-11-08T02:52:04.723Z,89.50
2017-11-08T02:53:04.681Z,87.70
2017-11-08T02:54:04.654Z,94.70
2017-11-08T02:55:04.741Z,84.90
2017-11-08T02:56:04.566Z,93.40
2017-11-08T02:57:04.528Z,84.30
2017-11-08T02:58:04.491Z,96.30
2017-11-08T02:59:04.746Z,92.10
2017-11-08T03:00:04.412Z,88.60
2017-11-08T03:01:04.373Z,83.80
2017-11-08T03:02:04.336Z,93.80
2017-11-08T03:03:04.298Z,90.40
2017-11-08T03:04:04.260Z,98.70
2017-11-08T03:05:04.221Z,91.80
2017-11-08T03:06:04.182Z,98.80
2017-11-08T03:07:04.145Z,88.80
2017-11-08T03:08:04.107Z,93.80
2017-11-08T03:09:04.068Z,90.40
2017-11-08T03:10:04.030Z,104.60
2017-11-08T03:11:03.990Z,108.20
2017-11-08T03:12:03.953Z,98.30
2017-11-08T03:13:03.917Z,94.70
2017-11-08T03:14:03.880Z,96.10
2017-11-08T03:15:03.838Z,96.70
2017-11-08T03:16:03.802Z,89.80
2017-11-08T03:17:03.761Z,87.40
2017-11-08T03:18:03.723Z,90.80
2017-11-08T03:19:03.686Z,105.40
2017-11-08T03:20:03.647Z,92.70
2017-11-08T03:21:03.615Z,115.70
2017-11-08T03:22:03.570Z,97.90
2017-11-08T03:23:03.531Z,102.30
2017-11-08T03:24:03.492Z,112.50
2017-11-08T03:25:03.455Z,101.90
2017-11-08T03:26:03.416Z,112.20
2017-11-08T03:27:03.382Z,121.20
2017-11-08T03:28:03.337Z,122.70
2017-11-08T03:29:03.301Z,110.90
2017-11-08T03:30:03.268Z,111.30
2017-11-08T03:31:03.675Z,119.90
2017-11-08T03:32:03.184Z,127.60
2017-11-08T03:33:03.148Z,142.10
2017-11-08T03:34:03.109Z,128.90
2017-11-08T03:35:03.068Z,135.60
2017-11-08T03:36:03.035Z,125.30
2017-11-08T03:37:02.993Z,124.60
2017-11-08T03:38:02.954Z,131.70
2017-11-08T03:39:02.910Z,133.00
2017-11-08T03:40:02.877Z,143.10
2017-11-08T03:41:02.840Z,136.10
2017-11-08T03:42:02.799Z,129.60
2017-11-08T03:43:02.761Z,141.10
2017-11-08T03:44:02.727Z,156.90
2017-11-08T03:45:02.684Z,138.00
2017-11-08T03:46:02.646Z,121.90
2017-11-08T03:47:02.607Z,129.00
2017-11-08T03:48:02.569Z,135.40
2017-11-08T03:49:02.530Z,132.00
2017-11-08T03:50:02.491Z,133.50
2017-11-08T03:51:02.461Z,125.70
2017-11-08T03:52:02.412Z,128.00
2017-11-08T03:53:02.374Z,131.80
2017-11-08T03:54:02.336Z,114.80
2017-11-08T03:55:02.297Z,117.30
2017-11-08T03:56:02.258Z,136.70
2017-11-08T03:57:02.219Z,135.40
2017-11-08T03:58:02.184Z,129.60
2017-11-08T03:59:02.143Z,144.80
2017-11-08T04:00:02.104Z,127.50
2017-11-08T04:01:02.067Z,128.30
2017-11-08T04:02:02.024Z,130.00
2017-11-08T04:03:01.987Z,146.00
2017-11-08T04:04:01.949Z,128.60
2017-11-08T04:05:01.909Z,132.80
2017-11-08T04:06:01.872Z,125.60
2017-11-08T04:07:01.835Z,133.00
2017-11-08T04:08:01.810Z,125.30
2017-11-08T04:09:01.756Z,126.10
2017-11-08T04:10:01.716Z,141.00
2017-11-08T04:11:01.679Z,136.20
2017-11-08T04:12:01.638Z,127.60
2017-11-08T04:13:01.597Z,141.80
2017-11-08T04:14:01.555Z,136.00
2017-11-08T04:15:01.525Z,141.50
2017-11-08T04:16:01.486Z,129.20
2017-11-08T04:17:01.446Z,145.20
2017-11-08T04:18:01.406Z,139.50
2017-11-08T04:19:01.367Z,143.20
2017-11-08T04:20:01.327Z,135.40
2017-11-08T04:21:01.291Z,141.60
2017-11-08T04:22:01.249Z,140.00
2017-11-08T04:23:01.213Z,138.60
2017-11-08T04:24:01.175Z,139.70
2017-11-08T04:25:01.137Z,141.80
2017-11-08T04:26:01.096Z,155.20
2017-11-08T04:27:01.057Z,135.10
2017-11-08T04:28:01.023Z,146.90
2017-11-08T04:29:00.982Z,128.50
2017-11-08T04:30:00.942Z,147.80
2017-11-08T04:31:00.905Z,141.20
2017-11-08T04:32:00.865Z,139.40
2017-11-08T04:33:00.824Z,132.40
2017-11-08T04:34:00.788Z,138.20
2017-11-08T04:35:00.749Z,127.70
2017-11-08T04:36:00.711Z,143.90
2017-11-08T04:37:00.670Z,117.40
2017-11-08T04:38:00.635Z,125.40
2017-11-08T04:39:00.594Z,145.00
2017-11-08T04:40:00.555Z,132.90
2017-11-08T04:41:00.518Z,140.00
2017-11-08T04:42:00.481Z,138.30
2017-11-08T04:43:00.441Z,142.90
2017-11-08T04:44:00.403Z,143.90
2017-11-08T04:45:00.368Z,130.90
2017-11-08T04:46:00.328Z,130.30
2017-11-08T04:47:00.289Z,130.20
2017-11-08T04:48:00.244Z,141.00
2017-11-08T04:49:00.212Z,132.40
2017-11-08T04:50:00.171Z,133.10
2017-11-08T04:51:00.132Z,131.40
2017-11-08T04:52:00.099Z,138.90
2017-11-08T04:53:00.312Z,132.20
2017-11-08T04:54:00.018Z,137.10
2017-11-08T04:54:59.979Z,130.30
2017-11-08T04:55:59.941Z,139.50
2017-11-08T04:56:59.906Z,122.50
2017-11-08T04:57:59.865Z,132.60
2017-11-08T04:58:59.824Z,127.00
2017-11-08T04:59:59.793Z,130.60
2017-11-08T05:00:59.749Z,140.10
2017-11-08T05:01:59.712Z,129.40
2017-11-08T05:02:59.670Z,141.30
2017-11-08T05:03:59.633Z,139.50
2017-11-08T05:04:59.594Z,126.30
2017-11-08T05:05:59.557Z,123.10
2017-11-08T05:06:59.519Z,128.30
2017-11-08T05:07:59.479Z,137.20
2017-11-08T05:08:59.442Z,122.30
2017-11-08T05:09:59.403Z,124.80
2017-11-08T05:10:59.364Z,122.70
2017-11-08T05:11:59.326Z,137.40
2017-11-08T05:12:59.289Z,140.50
2017-11-08T05:13:59.251Z,134.20
2017-11-08T05:14:59.209Z,142.80
2017-11-08T05:15:59.174Z,134.20
2017-11-08T05:16:59.134Z,146.40
2017-11-08T05:17:59.114Z,147.60
2017-11-08T05:18:59.059Z,132.00
2017-11-08T05:19:59.020Z,140.60
2017-11-08T05:20:58.980Z,152.60
2017-11-08T05:21:58.942Z,142.20
2017-11-08T05:22:58.904Z,137.60
2017-11-08T05:23:58.863Z,154.80
2017-11-08T05:24:58.824Z,141.40
2017-11-08T05:25:58.788Z,149.40
2017-11-08T05:26:58.749Z,162.80
2017-11-08T05:27:58.712Z,142.20
2017-11-08T05:28:58.674Z,141.70
2017-11-08T05:29:58.634Z,140.80
2017-11-08T05:30:58.598Z,145.30
2017-11-08T05:31:58.562Z,136.20
2017-11-08T05:32:58.519Z,153.10
2017-11-08T05:33:58.481Z,143.30
2017-11-08T05:34:58.445Z,162.90
2017-11-08T05:35:58.403Z,143.70
2017-11-08T05:36:58.367Z,143.40
2017-11-08T05:37:58.326Z,163.90
2017-11-08T05:38:58.287Z,161.30
2017-11-08T05:39:58.455Z,155.70
2017-11-08T05:40:58.213Z,158.50
2017-11-08T05:41:58.173Z,151.60
2017-11-08T05:42:58.139Z,165.50
2017-11-08T05:43:58.096Z,160.20
2017-11-08T05:44:58.058Z,162.10
2017-11-08T05:45:58.018Z,156.90
2017-11-08T05:46:57.981Z,156.00
2017-11-08T05:47:57.941Z,160.90
2017-11-08T05:48:57.904Z,173.40
2017-11-08T05:49:57.864Z,146.50
2017-11-08T05:50:57.827Z,167.20
2017-11-08T05:51:57.789Z,166.80
2017-11-08T05:52:57.751Z,156.60
2017-11-08T05:53:57.712Z,154.90
2017-11-08T05:54:57.675Z,156.70
2017-11-08T05:55:57.637Z,150.30
2017-11-08T05:56:57.596Z,158.90
2017-11-08T05:57:57.559Z,156.70
2017-11-08T05:58:57.839Z,168.70
2017-11-08T05:59:57.481Z,169.40
2017-11-08T06:00:57.445Z,165.50
2017-11-08T06:01:57.404Z,157.70
2017-11-08T06:02:57.365Z,161.60
2017-11-08T06:03:57.328Z,151.30
2017-11-08T06:04:57.290Z,152.00
2017-11-08T06:05:57.252Z,154.30
2017-11-08T06:06:57.213Z,151.10
2017-11-08T06:07:57.181Z,146.70
2017-11-08T06:08:57.137Z,156.20
2017-11-08T06:09:57.124Z,161.20
2017-11-08T06:10:57.067Z,177.70
2017-11-08T06:11:57.021Z,180.40
2017-11-08T06:12:56.992Z,165.70
2017-11-08T06:13:56.946Z,144.60
2017-11-08T06:14:56.908Z,160.10
2017-11-08T06:15:56.868Z,163.50
2017-11-08T06:16:56.858Z,146.30
2017-11-08T06:17:56.793Z,156.60
2017-11-08T06:18:56.753Z,153.40
2017-11-08T06:19:56.714Z,156.30
2017-11-08T06:20:56.676Z,172.20
2017-11-08T06:21:56.640Z,169.00
2017-11-08T06:22:56.598Z,163.50
2017-11-08T06:23:56.563Z,167.70
2017-11-08T06:24:56.523Z,166.50
2017-11-08T06:25:56.485Z,157.10
2017-11-08T06:26:56.450Z,185.90
2017-11-08T06:27:56.408Z,177.40
2017-11-08T06:28:56.369Z,179.00
2017-11-08T06:29:56.333Z,192.40
2017-11-08T06:30:56.294Z,181.10
2017-11-08T06:31:56.255Z,192.90
2017-11-08T06:32:56.217Z,188.80
2017-11-08T06:33:56.176Z,184.10
2017-11-08T06:34:56.139Z,198.00
2017-11-08T06:35:56.104Z,202.70
2017-11-08T06:36:56.064Z,186.30
2017-11-08T06:37:56.025Z,200.90
2017-11-08T06:38:55.986Z,182.50
2017-11-08T06:39:55.948Z,179.00
2017-11-08T06:40:55.910Z,178.60
2017-11-08T06:41:55.873Z,196.00
2017-11-08T06:42:55.830Z,175.70
2017-11-08T06:43:55.793Z,178.70
2017-11-08T06:44:55.754Z,180.30
2017-11-08T06:45:55.715Z,170.10
2017-11-08T06:46:55.677Z,157.40
2017-11-08T06:47:55.639Z,169.10
2017-11-08T06:48:55.602Z,156.40
2017-11-08T06:49:55.563Z,160.00
2017-11-08T06:50:55.532Z,170.50
2017-11-08T06:51:55.496Z,160.80
2017-11-08T06:52:55.448Z,159.50
2017-11-08T06:53:55.413Z,158.20
2017-11-08T06:54:55.376Z,159.30
2017-11-08T06:55:55.333Z,177.00
2017-11-08T06:56:55.294Z,168.10
2017-11-08T06:57:55.258Z,161.70
2017-11-08T06:58:55.217Z,160.80
2017-11-08T06:59:55.177Z,177.40
2017-11-08T07:00:55.143Z,167.90
2017-11-08T07:01:55.103Z,166.20
2017-11-08T07:02:55.064Z,164.80
2017-11-08T07:03:55.029Z,149.90
2017-11-08T07:04:54.988Z,160.70
2017-11-08T07:05:54.950Z,158.20
2017-11-08T07:06:54.911Z,168.10
2017-11-08T07:07:54.872Z,166.70
2017-11-08T07:08:54.837Z,154.00
2017-11-08T07:09:54.816Z,151.90
2017-11-08T07:10:54.758Z,173.80
2017-11-08T07:11:54.721Z,190.60
2017-11-08T07:12:54.687Z,172.10
2017-11-08T07:13:54.646Z,178.20
2017-11-08T07:14:54.606Z,186.60
2017-11-08T07:15:54.572Z,202.20
2017-11-08T07:16:54.530Z,200.90
2017-11-08T07:17:54.491Z,178.70
2017-11-08T07:18:54.453Z,195.80
2017-11-08T07:19:54.415Z,200.10
2017-11-08T07:20:54.387Z,201.90
2017-11-08T07:21:54.340Z,206.90
2017-11-08T07:22:54.302Z,204.90
2017-11-08T07:23:54.263Z,221.30
2017-11-08T07:24:54.227Z,179.20
2017-11-08T07:25:54.188Z,211.20
2017-11-08T07:26:54.149Z,188.50
2017-11-08T07:27:54.112Z,201.90
2017-11-08T07:28:54.074Z,199.50
2017-11-08T07:29:54.038Z,179.50
2017-11-08T07:30:53.997Z,205.80
2017-11-08T07:31:53.960Z,180.80
2017-11-08T07:32:53.922Z,207.70
2017-11-08T07:33:53.884Z,186.60
2017-11-08T07:34:53.847Z,175.30
2017-11-08T07:35:53.807Z,201.40
2017-11-08T07:36:53.770Z,206.10
2017-11-08T07:37:53.736Z,182.10
2017-11-08T07:38:53.692Z,186.70
2017-11-08T07:39:53.655Z,210.00
2017-11-08T07:40:53.616Z,209.00
2017-11-08T07:41:53.577Z,193.90
2017-11-08T07:42:53.540Z,192.60
2017-11-08T07:43:53.502Z,209.60
2017-11-08T07:44:53.465Z,197.10
2017-11-08T07:45:53.426Z,206.20
2017-11-08T07:46:53.392Z,226.10
2017-11-08T07:47:53.349Z,202.10
2017-11-08T07:48:53.312Z,225.00
2017-11-08T07:49:53.275Z,231.40
2017-11-08T07:50:53.253Z,211.60
2017-11-08T07:51:53.198Z,189.30
2017-11-08T07:52:53.165Z,199.90
2017-11-08T07:53:53.125Z,211.60
2017-11-08T07:54:53.083Z,192.80
2017-11-08T07:55:53.045Z,186.80
2017-11-08T07:56:53.010Z,211.20
2017-11-08T07:57:53.405Z,173.10
2017-11-08T07:58:52.933Z,183.70
2017-11-08T07:59:52.893Z,185.00
2017-11-08T08:00:52.856Z,179.90
2017-11-08T08:01:52.819Z,185.60
2017-11-08T08:02:52.780Z,200.90
2017-11-08T08:03:52.740Z,208.70
2017-11-08T08:04:52.703Z,188.70
2017-11-08T08:05:52.666Z,202.80
2017-11-08T08:06:52.626Z,205.10
2017-11-08T08:07:52.589Z,170.40
2017-11-08T08:08:52.553Z,190.40
2017-11-08T08:09:52.518Z,190.40
2017-11-08T08:10:52.476Z,175.20
2017-11-08T08:11:52.436Z,159.90
2017-11-08T08:12:52.400Z,161.50
2017-11-08T08:13:52.361Z,169.10
2017-11-08T08:14:52.327Z,181.10
2017-11-08T08:15:52.286Z,177.90
2017-11-08T08:16:52.247Z,181.10
2017-11-08T08:17:52.210Z,163.90
2017-11-08T08:18:52.173Z,169.50
2017-11-08T08:19:52.133Z,181.20
2017-11-08T08:20:52.115Z,172.10
2017-11-08T08:21:52.059Z,188.60
2017-11-08T08:22:52.782Z,170.90
2017-11-08T08:23:51.986Z,184.40
2017-11-08T08:24:51.951Z,176.60
2017-11-08T08:25:51.908Z,176.00
2017-11-08T08:26:51.874Z,175.50
2017-11-08T08:27:51.831Z,189.20
2017-11-08T08:28:51.794Z,193.90
2017-11-08T08:29:51.756Z,202.40
2017-11-08T08:30:51.719Z,196.70
2017-11-08T08:31:51.684Z,202.50
2017-11-08T08:32:51.647Z,191.80
2017-11-08T08:33:51.604Z,188.80
2017-11-08T08:34:51.566Z,186.00
2017-11-08T08:35:51.528Z,194.40
2017-11-08T08:36:51.493Z,195.10
2017-11-08T08:37:51.456Z,194.20
2017-11-08T08:38:51.420Z,211.40
2017-11-08T08:39:51.380Z,201.20
2017-11-08T08:40:51.341Z,195.90
2017-11-08T08:41:51.302Z,192.10
2017-11-08T08:42:51.265Z,180.40
2017-11-08T08:43:51.230Z,179.60
2017-11-08T08:44:51.189Z,188.00
2017-11-08T08:45:51.157Z,185.30
2017-11-08T08:46:51.113Z,176.80
2017-11-08T08:47:51.076Z,169.90
2017-11-08T08:48:51.038Z,166.10
2017-11-08T08:49:51.002Z,169.10
2017-11-08T08:50:50.964Z,182.60
2017-11-08T08:51:50.925Z,174.30
2017-11-08T08:52:50.887Z,198.70
2017-11-08T08:53:50.851Z,188.90
2017-11-08T08:54:50.813Z,195.60
2017-11-08T08:55:50.774Z,173.50
2017-11-08T08:56:50.737Z,195.70
2017-11-08T08:57:50.701Z,166.80
2017-11-08T08:58:50.662Z,189.00
2017-11-08T08:59:50.623Z,177.90
2017-11-08T09:00:50.584Z,167.20
2017-11-08T09:01:50.550Z,186.00
2017-11-08T09:02:50.510Z,175.90
2017-11-08T09:03:50.473Z,161.10
2017-11-08T09:04:50.436Z,164.10
2017-11-08T09:05:50.412Z,163.00
2017-11-08T09:06:50.359Z,163.80
2017-11-08T09:07:50.322Z,160.10
2017-11-08T09:08:50.285Z,155.20
2017-11-08T09:09:50.248Z,157.50
2017-11-08T09:10:50.210Z,163.00
2017-11-08T09:11:50.172Z,147.50
2017-11-08T09:12:50.137Z,140.20
2017-11-08T09:13:50.098Z,145.10
2017-11-08T09:14:50.059Z,148.40
2017-11-08T09:15:50.022Z,151.20
2017-11-08T09:16:49.984Z,152.50
2017-11-08T09:17:49.947Z,147.60
2017-11-08T09:18:49.907Z,146.50
2017-11-08T09:19:49.869Z,156.70
2017-11-08T09:20:49.834Z,133.10
2017-11-08T09:21:49.795Z,138.70
2017-11-08T09:22:49.757Z,143.40
2017-11-08T09:23:49.720Z,144.80
2017-11-08T09:24:49.683Z,134.10
2017-11-08T09:25:49.645Z,131.80
2017-11-08T09:26:49.609Z,130.50
2017-11-08T09:27:49.569Z,148.80
2017-11-08T09:28:49.537Z,129.80
2017-11-08T09:29:49.495Z,127.70
2017-11-08T09:30:49.458Z,130.20
2017-11-08T09:31:49.416Z,130.60
2017-11-08T09:32:49.380Z,128.50
2017-11-08T09:33:49.345Z,131.10
2017-11-08T09:34:49.308Z,131.70
2017-11-08T09:35:49.269Z,127.00
2017-11-08T09:36:49.232Z,120.90
2017-11-08T09:37:49.194Z,125.00
2017-11-08T09:38:49.160Z,129.70
2017-11-08T09:39:49.118Z,134.10
2017-11-08T09:40:49.076Z,134.30
2017-11-08T09:41:49.055Z,133.50
2017-11-08T09:42:49.007Z,136.80
2017-11-08T09:43:48.969Z,137.30
2017-11-08T09:44:48.933Z,139.40
2017-11-08T09:45:48.898Z,135.30
2017-11-08T09:46:48.859Z,146.40
2017-11-08T09:47:48.821Z,145.30
2017-11-08T09:48:48.782Z,147.50
2017-11-08T09:49:48.744Z,148.80
2017-11-08T09:50:48.708Z,141.90
2017-11-08T09:51:48.670Z,151.50
2017-11-08T09:52:48.640Z,152.50
2017-11-08T09:53:48.595Z,149.60
2017-11-08T09:54:48.558Z,154.90
2017-11-08T09:55:48.521Z,151.00
2017-11-08T09:56:48.485Z,154.40
2017-11-08T09:57:48.450Z,153.30
2017-11-08T09:58:48.408Z,133.30
2017-11-08T09:59:48.371Z,145.20
2017-11-08T10:00:48.335Z,141.00
2017-11-08T10:01:48.297Z,145.20
2017-11-08T10:02:48.259Z,142.70
2017-11-08T10:03:48.222Z,141.90
2017-11-08T10:04:48.185Z,133.80
2017-11-08T10:05:48.150Z,134.00
2017-11-08T10:06:48.115Z,126.10
2017-11-08T10:07:48.101Z,132.60
2017-11-08T10:08:48.052Z,128.70
2017-11-08T10:09:47.999Z,132.30
2017-11-08T10:10:47.966Z,132.30
2017-11-08T10:11:47.926Z,122.80
2017-11-08T10:12:47.902Z,135.60
2017-11-08T10:13:47.877Z,135.10
2017-11-08T10:14:48.512Z,127.20
2017-11-08T10:15:47.796Z,117.80
2017-11-08T10:16:47.739Z,128.60
2017-11-08T10:17:47.704Z,132.90
2017-11-08T10:18:47.664Z,151.00
2017-11-08T10:19:47.628Z,145.40
2017-11-08T10:20:47.666Z,141.30
2017-11-08T10:21:47.555Z,140.40
2017-11-08T10:22:47.517Z,155.80
2017-11-08T10:23:47.479Z,146.60
2017-11-08T10:24:47.444Z,142.70
2017-11-08T10:25:47.408Z,146.60
2017-11-08T10:26:47.812Z,150.30
2017-11-08T10:27:47.331Z,148.00
2017-11-08T10:28:47.295Z,157.20
2017-11-08T10:29:47.258Z,161.60
2017-11-08T10:30:47.219Z,150.70
2017-11-08T10:31:47.185Z,143.70
2017-11-08T10:32:47.145Z,148.70
2017-11-08T10:33:47.110Z,149.70
2017-11-08T10:34:47.071Z,155.60
2017-11-08T10:35:47.035Z,154.00
2017-11-08T10:36:46.997Z,145.50
2017-11-08T10:37:46.961Z,156.50
2017-11-08T10:38:46.924Z,161.20
2017-11-08T10:39:46.887Z,154.30
2017-11-08T10:40:46.849Z,151.00
2017-11-08T10:41:46.817Z,149.30
2017-11-08T10:42:46.740Z,166.20
2017-11-08T10:43:46.706Z,145.70
2017-11-08T10:44:46.667Z,147.70
2017-11-08T10:45:46.631Z,152.60
2017-11-08T10:46:46.599Z,146.70
2017-11-08T10:47:46.556Z,141.20
2017-11-08T10:48:46.519Z,135.00
2017-11-08T10:49:46.481Z,153.80
2017-11-08T10:50:46.443Z,146.40
2017-11-08T10:51:46.407Z,147.50
2017-11-08T10:52:46.369Z,151.90
2017-11-08T10:53:46.332Z,137.40
2017-11-08T10:54:46.295Z,141.30
2017-11-08T10:55:46.652Z,155.60
2017-11-08T10:56:46.220Z,146.40
2017-11-08T10:57:46.185Z,150.60
2017-11-08T10:58:46.148Z,139.20
2017-11-08T10:59:46.108Z,152.90
2017-11-08T11:00:46.073Z,155.80
2017-11-08T11:01:46.037Z,151.00
2017-11-08T11:02:45.999Z,154.50
2017-11-08T11:03:45.961Z,156.70
2017-11-08T11:04:45.927Z,159.70
2017-11-08T11:05:45.888Z,156.40
2017-11-08T11:06:45.851Z,158.70
2017-11-08T11:07:45.817Z,160.50
2017-11-08T11:08:45.780Z,155.70
2017-11-08T11:09:45.744Z,159.20
2017-11-08T11:10:45.704Z,154.70
2017-11-08T11:11:45.668Z,159.50
2017-11-08T11:12:45.633Z,152.50
2017-11-08T11:13:45.595Z,159.20
2017-11-08T11:14:45.559Z,152.30
2017-11-08T11:15:45.525Z,156.40
2017-11-08T11:16:45.487Z,154.80
2017-11-08T11:17:45.450Z,159.20
2017-11-08T11:18:45.412Z,147.60
2017-11-08T11:19:45.380Z,167.40
2017-11-08T11:20:45.341Z,167.10
2017-11-08T11:21:45.303Z,149.90
2017-11-08T11:22:45.266Z,147.80
2017-11-08T11:23:45.231Z,149.30
2017-11-08T11:24:45.455Z,150.70
2017-11-08T11:25:45.158Z,152.60
2017-11-08T11:26:45.118Z,144.10
2017-11-08T11:27:45.097Z,160.20
2017-11-08T11:28:45.049Z,166.00
2017-11-08T11:29:45.011Z,164.30
2017-11-08T11:30:44.977Z,164.40
2017-11-08T11:31:44.939Z,157.20
2017-11-08T11:32:44.902Z,164.30
2017-11-08T11:33:44.875Z,166.20
2017-11-08T11:34:44.837Z,178.40
2017-11-08T11:35:44.792Z,168.10
2017-11-08T11:36:44.754Z,184.70
2017-11-08T11:37:44.720Z,173.20
2017-11-08T11:38:44.682Z,169.80
2017-11-08T11:39:44.703Z,173.40
2017-11-08T11:40:44.610Z,177.10
2017-11-08T11:41:44.574Z,172.70
2017-11-08T11:42:44.616Z,177.10
2017-11-08T11:43:44.501Z,166.10
2017-11-08T11:44:44.465Z,191.50
2017-11-08T11:45:44.440Z,181.00
2017-11-08T11:46:44.390Z,178.80
2017-11-08T11:47:44.353Z,172.40
2017-11-08T11:48:44.317Z,181.70
2017-11-08T11:49:44.282Z,173.70
2017-11-08T11:50:44.244Z,182.00
2017-11-08T11:51:44.928Z,184.40
2017-11-08T11:52:44.176Z,187.60
2017-11-08T11:53:44.135Z,188.90
2017-11-08T11:54:44.099Z,182.70
2017-11-08T11:55:44.060Z,176.30
2017-11-08T11:56:44.026Z,176.60
2017-11-08T11:57:43.988Z,181.40
2017-11-08T11:58:43.950Z,191.00
2017-11-08T11:59:43.914Z,195.60
2017-11-08T12:00:43.878Z,182.20
2017-11-08T12:01:43.840Z,186.00
2017-11-08T12:02:43.808Z,199.40
2017-11-08T12:03:45.356Z,197.30
2017-11-08T12:04:43.810Z,209.10
2017-11-08T12:05:43.744Z,213.70
2017-11-08T12:06:43.657Z,221.60
2017-11-08T12:07:44.271Z,206.60
2017-11-08T12:08:43.584Z,213.00
2017-11-08T12:09:44.049Z,215.10
2017-11-08T12:10:43.508Z,214.60
2017-11-08T12:11:43.489Z,216.40
2017-11-08T12:12:43.438Z,228.60
2017-11-08T12:13:44.183Z,222.70
2017-11-08T12:14:43.362Z,218.00
2017-11-08T12:15:43.327Z,220.60
2017-11-08T12:16:43.290Z,227.70
2017-11-08T12:17:43.253Z,224.90
2017-11-08T12:18:43.215Z,222.40
2017-11-08T12:19:43.182Z,216.30
2017-11-08T12:20:43.144Z,221.90
2017-11-08T12:21:43.107Z,211.60
2017-11-08T12:22:43.069Z,219.90
2017-11-08T12:23:43.031Z,225.10
2017-11-08T12:24:42.996Z,218.80
2017-11-08T12:25:42.959Z,219.80
2017-11-08T12:26:42.924Z,216.60
2017-11-08T12:27:42.885Z,213.40
2017-11-08T12:28:42.848Z,208.70
2017-11-08T12:29:42.812Z,216.90
2017-11-08T12:30:42.782Z,212.80
2017-11-08T12:31:42.739Z,214.80
2017-11-08T12:32:42.701Z,228.30
2017-11-08T12:33:42.671Z,234.10